Time;durP1;ratioP1;P1;durP2;ratioP2;P2;SDS_P1;SDS_P2;PMS_P1;PMS_P2;Temp;Humidity;BMP_temperature;BMP_pressure;BME280_temperature;BME280_humidity;BME280_pressure;Samples;Min_cycle;Max_cycle;Signal;HPM_P1;HPM_P2
2023/01/17 00:00:57;;;;;;;24.90;13.70;;;;;;;3.04;76.78;100106.47;1665443;86;21202;-80
2023/01/17 00:10:51;;;;;;;26.00;14.13;;;;;;;2.87;77.13;100108.45;1665562;86;21712;-80
2023/01/17 00:13:59;;;;;;;23.30;13.50;;;;;;;2.85;77.11;100113.61;1665537;86;21262;-80
2023/01/17 00:17:05;;;;;;;27.48;14.35;;;;;;;2.76;77.33;100109.84;1665527;86;21187;-80
2023/01/17 01:36:25;;;;;;;25.60;12.53;;;;;;;2.00;79.15;100052.39;1665552;86;21174;-80
2023/01/17 01:39:30;;;;;;;27.15;14.68;;;;;;;1.88;79.55;100046.66;1665523;86;21249;-80
2023/01/17 01:42:36;;;;;;;35.15;16.12;;;;;;;1.78;79.75;100041.17;1665373;86;21194;-80
2023/01/17 01:45:42;;;;;;;38.58;19.45;;;;;;;1.72;79.98;100041.19;1665327;86;21210;-80
2023/01/17 01:49:01;;;;;;;45.80;18.70;;;;;;;1.75;80.14;100043.64;1664612;86;21205;-80
2023/01/17 01:52:09;;;;;;;45.90;18.40;;;;;;;1.82;79.83;100032.34;1665439;86;21178;-81
2023/01/17 01:55:27;;;;;;;48.23;19.57;;;;;;;1.84;79.56;100033.09;1665437;86;21206;-81
2023/01/17 01:58:36;;;;;;;54.50;23.02;;;;;;;1.92;79.37;100033.28;1664930;86;21233;-81
2023/01/17 02:01:41;;;;;;;77.03;34.18;;;;;;;1.88;79.40;100028.62;1665441;86;21703;-80
2023/01/17 02:04:47;;;;;;;78.87;43.48;;;;;;;1.85;79.56;100025.36;1665416;86;21210;-80
2023/01/17 02:08:11;;;;;;;67.12;37.98;;;;;;;1.91;79.58;100027.03;1665243;86;21212;-80
2023/01/17 02:11:18;;;;;;;64.12;34.13;;;;;;;1.89;79.51;100020.07;1665456;86;21226;-81
2023/01/17 02:14:27;;;;;;;69.37;39.30;;;;;;;1.96;79.35;100018.06;1665579;86;21245;-80
2023/01/17 02:17:56;;;;;;;48.95;28.47;;;;;;;1.98;79.03;100010.72;1665444;86;21217;-80
2023/01/17 02:21:33;;;;;;;41.63;22.87;;;;;;;1.99;79.06;100015.12;1664083;86;21233;-80
2023/01/17 02:25:08;;;;;;;43.75;21.00;;;;;;;1.95;79.24;100011.45;1605055;86;21245;-80
2023/01/17 02:28:53;;;;;;;55.30;24.25;;;;;;;1.86;79.19;100018.47;1664035;86;21846;-81
2023/01/17 02:32:17;;;;;;;45.33;22.98;;;;;;;1.82;79.33;100013.46;1665180;86;21774;-81
2023/01/17 02:35:33;;;;;;;48.95;22.55;;;;;;;1.74;79.71;100006.88;1665229;85;21202;-80
2023/01/17 02:39:11;;;;;;;54.73;24.45;;;;;;;1.74;79.72;100002.84;1664629;86;21231;-81
2023/01/17 02:42:25;;;;;;;56.65;27.00;;;;;;;1.82;79.65;100002.67;1622556;86;21246;-80
2023/01/17 02:45:28;;;;;;;46.92;24.77;;;;;;;1.78;79.90;99994.83;1665348;86;21198;-81
2023/01/17 02:48:36;;;;;;;49.58;28.10;;;;;;;1.73;80.35;99992.16;1665427;86;21229;-81
2023/01/17 02:51:52;;;;;;;57.65;30.75;;;;;;;1.73;80.43;99990.31;1665543;86;21194;-81
2023/01/17 02:55:18;;;;;;;39.20;24.15;;;;;;;1.84;80.17;99989.44;1665404;86;21775;-81
2023/01/17 02:58:43;;;;;;;45.88;29.30;;;;;;;1.87;79.79;99986.96;1665386;86;21269;-81
2023/01/17 03:02:05;;;;;;;51.55;33.98;;;;;;;1.83;79.59;99997.14;1665517;86;21190;-81
2023/01/17 03:05:34;;;;;;;47.17;29.55;;;;;;;1.77;79.98;99995.82;1665314;86;21774;-80
2023/01/17 03:08:39;;;;;;;32.67;17.20;;;;;;;1.81;80.04;99991.53;1664592;86;21225;-81
2023/01/17 03:11:45;;;;;;;29.18;19.37;;;;;;;1.59;80.14;99989.25;1642610;86;21206;-80
2023/01/17 03:14:51;;;;;;;34.23;20.12;;;;;;;1.52;79.93;99981.33;1665410;86;21190;-80
2023/01/17 03:17:59;;;;;;;42.50;25.77;;;;;;;1.60;79.71;99977.98;1664959;86;21246;-81
2023/01/17 03:21:04;;;;;;;32.50;21.30;;;;;;;1.35;80.46;99977.31;1665518;86;21183;-81
2023/01/17 03:24:09;;;;;;;39.18;27.98;;;;;;;1.23;81.05;99979.18;1665447;86;21221;-81
2023/01/17 03:27:15;;;;;;;42.62;26.52;;;;;;;1.31;80.83;99981.23;1665460;86;21194;-81
2023/01/17 03:30:21;;;;;;;45.75;31.00;;;;;;;1.27;80.83;99980.65;1665558;86;21746;-81
2023/01/17 03:33:27;;;;;;;52.83;35.78;;;;;;;1.21;81.15;99975.73;1665543;86;21222;-81
2023/01/17 03:36:31;;;;;;;55.88;37.08;;;;;;;1.20;81.40;99978.07;1665414;86;21225;-81
2023/01/17 03:39:37;;;;;;;43.30;32.08;;;;;;;1.26;81.44;99964.59;1665585;86;21233;-81
2023/01/17 03:42:44;;;;;;;42.65;30.72;;;;;;;1.42;80.99;99967.75;1665468;86;21818;-81
2023/01/17 03:45:52;;;;;;;37.00;24.20;;;;;;;1.52;80.90;99977.28;1665684;86;21743;-81
2023/01/17 03:48:58;;;;;;;40.30;25.12;;;;;;;1.49;80.88;99974.83;1665370;86;21787;-80
2023/01/17 03:52:04;;;;;;;37.00;20.43;;;;;;;1.39;81.26;99969.84;1665367;86;21269;-81
2023/01/17 03:55:09;;;;;;;32.63;16.85;;;;;;;1.46;81.44;99973.75;1665528;86;21198;-80
2023/01/17 03:58:09;;;;;;;33.28;18.10;;;;;;;1.51;81.28;99968.34;1664017;86;21277;-81
2023/01/17 04:01:15;;;;;;;27.35;15.72;;;;;;;1.39;81.36;99959.05;1665436;86;21213;-81
2023/01/17 04:04:21;;;;;;;32.25;17.60;;;;;;;1.39;81.28;99956.36;1664984;86;21242;-81
2023/01/17 04:07:26;;;;;;;30.43;17.87;;;;;;;1.26;81.72;99961.40;1665585;86;21162;-81
2023/01/17 04:10:32;;;;;;;38.58;17.98;;;;;;;1.43;81.49;99959.17;1665593;86;21783;-81
2023/01/17 04:13:38;;;;;;;33.02;18.92;;;;;;;1.61;80.60;99963.05;1665467;86;21237;-82
2023/01/17 04:16:44;;;;;;;30.52;18.85;;;;;;;1.76;80.34;99968.50;1665586;86;21180;-81
2023/01/17 04:19:51;;;;;;;32.33;16.05;;;;;;;1.43;81.01;99964.56;1665579;86;21252;-81
2023/01/17 04:22:56;;;;;;;33.10;18.67;;;;;;;1.30;81.55;99966.55;1665444;86;21214;-81
2023/01/17 04:26:02;;;;;;;32.83;18.20;;;;;;;1.33;81.79;99971.20;1664232;85;21197;-81
2023/01/17 04:29:08;;;;;;;30.77;17.12;;;;;;;1.31;81.84;99966.91;1665413;86;21218;-81
2023/01/17 04:32:06;;;;;;;35.08;18.15;;;;;;;1.23;82.10;99963.51;1665488;86;21190;-81
2023/01/17 04:34:59;;;;;;;31.42;17.52;;;;;;;1.11;82.53;99969.88;1665537;86;21689;-81
2023/01/17 04:38:05;;;;;;;35.88;18.48;;;;;;;1.16;82.61;99967.17;1665104;86;21206;-81
2023/01/17 04:41:10;;;;;;;36.63;18.73;;;;;;;1.13;82.70;99953.09;1665645;86;21185;-81
2023/01/17 04:44:16;;;;;;;32.38;18.52;;;;;;;1.17;82.71;99955.91;1665431;86;21262;-81
2023/01/17 04:47:21;;;;;;;38.73;20.68;;;;;;;1.10;83.08;99953.36;1665498;86;21198;-81
2023/01/17 04:50:25;;;;;;;41.73;21.62;;;;;;;1.08;83.25;99955.30;1665378;86;21266;-81
2023/01/17 04:53:30;;;;;;;36.48;21.75;;;;;;;1.02;83.37;99950.78;1665430;86;21226;-81
2023/01/17 04:56:35;;;;;;;37.90;19.73;;;;;;;1.06;83.52;99950.55;1665533;86;21182;-81
2023/01/17 04:59:33;;;;;;;42.43;20.27;;;;;;;1.08;83.46;99958.84;1665409;86;21265;-81
2023/01/17 05:02:38;;;;;;;36.88;20.15;;;;;;;1.34;82.58;99943.76;1665400;86;21814;-81
2023/01/17 05:05:44;;;;;;;43.50;23.70;;;;;;;1.46;81.64;99949.50;1664385;86;21755;-80
2023/01/17 05:08:51;;;;;;;41.05;23.25;;;;;;;1.30;81.96;99940.95;1664724;86;21779;-80
2023/01/17 05:11:56;;;;;;;47.95;25.30;;;;;;;1.46;81.49;99933.33;1665345;86;21193;-80
2023/01/17 05:15:02;;;;;;;53.35;25.35;;;;;;;1.42;81.45;99931.86;1664263;86;21210;-80
2023/01/17 05:18:09;;;;;;;53.90;24.72;;;;;;;1.00;82.93;99935.25;1665019;86;21801;-81
2023/01/17 05:21:15;;;;;;;47.38;25.85;;;;;;;1.01;83.28;99923.98;1664231;86;22402;-82
2023/01/17 05:24:21;;;;;;;56.23;26.70;;;;;;;1.29;82.42;99922.58;1664367;86;21238;-82
2023/01/17 05:27:26;;;;;;;53.78;27.37;;;;;;;1.25;82.32;99922.47;1665500;86;21190;-82
2023/01/17 05:30:32;;;;;;;49.03;24.87;;;;;;;1.35;82.02;99929.30;1665487;86;21261;-82
2023/01/17 05:33:38;;;;;;;55.90;26.07;;;;;;;1.21;82.42;99937.16;1665434;86;21237;-80
2023/01/17 05:36:43;;;;;;;51.25;24.85;;;;;;;1.22;82.44;99930.33;1664282;84;21225;-80
2023/01/17 05:39:49;;;;;;;51.83;25.10;;;;;;;1.12;82.78;99928.48;1657285;86;21273;-81
2023/01/17 05:42:56;;;;;;;54.13;27.37;;;;;;;1.06;83.27;99926.30;1664192;86;21265;-80
2023/01/17 05:46:01;;;;;;;54.10;25.43;;;;;;;1.10;83.47;99929.12;1665308;86;21238;-80
2023/01/17 05:49:08;;;;;;;54.73;25.65;;;;;;;1.24;83.02;99935.58;1663782;86;21228;-81
2023/01/17 05:52:14;;;;;;;57.53;26.42;;;;;;;1.27;82.73;99937.54;1664298;86;21225;-81
2023/01/17 05:55:20;;;;;;;52.80;26.23;;;;;;;1.41;82.51;99954.38;1665055;86;21200;-80
2023/01/17 05:58:26;;;;;;;68.05;31.70;;;;;;;1.50;82.75;99948.23;1662312;86;21229;-81
2023/01/17 06:01:32;;;;;;;70.42;34.38;;;;;;;1.66;82.43;99941.09;1660928;85;21626;-81
2023/01/17 06:04:38;;;;;;;73.20;37.33;;;;;;;1.82;82.36;99942.84;1662728;86;21198;-81
2023/01/17 06:07:45;;;;;;;81.42;37.10;;;;;;;1.79;82.80;99939.94;1642913;85;21200;-81
2023/01/17 06:10:52;;;;;;;79.17;37.58;;;;;;;1.95;82.74;99936.78;1655496;85;21849;-81
2023/01/17 06:13:58;;;;;;;80.55;38.80;;;;;;;1.93;83.01;99940.12;1662756;86;21560;-81
2023/01/17 06:17:04;;;;;;;86.95;39.60;;;;;;;2.14;82.72;99922.58;1663011;85;21806;-81
2023/01/17 06:20:10;;;;;;;79.45;38.65;;;;;;;2.13;82.67;99910.08;1663024;85;21173;-81
2023/01/17 06:23:18;;;;;;;85.85;41.75;;;;;;;2.13;82.92;99899.78;1665236;83;58800;-81
2023/01/17 06:26:24;;;;;;;79.25;38.78;;;;;;;2.14;83.03;99904.19;1672913;84;21474;-81
2023/01/17 06:29:29;;;;;;;93.07;43.35;;;;;;;2.21;83.32;99910.28;1687894;83;21763;-81
2023/01/17 06:32:35;;;;;;;108.47;50.67;;;;;;;2.25;83.03;99898.20;1691749;83;21219;-80
2023/01/17 06:35:41;;;;;;;80.47;41.13;;;;;;;2.14;84.08;99890.20;1684735;83;21600;-81
2023/01/17 06:38:48;;;;;;;74.70;38.17;;;;;;;2.29;83.73;99878.55;1686751;83;21796;-81
2023/01/17 06:41:55;;;;;;;98.95;43.73;;;;;;;2.46;83.24;99894.14;1696086;83;21157;-81
2023/01/17 06:45:01;;;;;;;83.72;38.08;;;;;;;2.50;83.14;99893.38;1681115;83;21173;-81
2023/01/17 06:48:07;;;;;;;75.37;37.15;;;;;;;2.29;83.84;99898.30;1688620;83;21204;-81
2023/01/17 06:51:13;;;;;;;70.85;33.20;;;;;;;2.34;84.34;99894.35;1684863;83;21215;-81
2023/01/17 06:54:20;;;;;;;74.60;35.58;;;;;;;2.48;84.11;99901.59;1684643;83;21783;-81
2023/01/17 06:57:26;;;;;;;67.72;31.15;;;;;;;2.45;84.48;99907.28;1686041;83;21220;-80
2023/01/17 07:00:34;;;;;;;78.22;33.98;;;;;;;2.50;84.29;99902.84;1679738;84;21715;-81
2023/01/17 07:03:39;;;;;;;58.78;31.50;;;;;;;2.60;84.00;99905.58;1686570;83;21176;-81
2023/01/17 07:06:39;;;;;;;61.73;29.65;;;;;;;2.58;84.06;99902.14;1690141;83;21164;-81
2023/01/17 07:09:32;;;;;;;58.87;33.00;;;;;;;2.70;83.75;99895.17;1687208;83;21207;-81
2023/01/17 07:12:38;;;;;;;60.98;30.92;;;;;;;2.66;83.88;99893.73;1662805;85;21248;-81
2023/01/17 07:15:44;;;;;;;55.43;31.27;;;;;;;2.86;83.79;99916.25;1662638;84;21647;-81
2023/01/17 07:18:52;;;;;;;60.52;31.45;;;;;;;2.76;84.14;99909.47;1683290;83;21197;-81
2023/01/17 07:22:00;;;;;;;66.17;34.00;;;;;;;2.79;84.64;99902.45;1684430;83;31638;-81
2023/01/17 07:25:05;;;;;;;64.65;33.40;;;;;;;2.91;84.72;99907.74;1680137;84;21170;-81
2023/01/17 07:28:10;;;;;;;74.92;41.23;;;;;;;3.08;85.02;99898.98;1674802;84;21230;-81
2023/01/17 07:31:16;;;;;;;87.85;43.48;;;;;;;3.20;85.11;99899.24;1672901;84;21434;-81
2023/01/17 07:34:22;;;;;;;105.20;49.00;;;;;;;3.27;85.71;99892.27;1654583;85;21818;-89
2023/01/17 07:37:28;;;;;;;90.20;47.45;;;;;;;3.33;86.06;99890.34;1663936;85;21242;-88
2023/01/17 07:40:34;;;;;;;90.28;49.83;;;;;;;3.55;85.97;99896.50;1660245;85;21298;-88
2023/01/17 07:43:42;;;;;;;100.10;51.28;;;;;;;3.74;85.85;99884.83;1652223;86;21232;-88
2023/01/17 07:46:49;;;;;;;102.47;52.30;;;;;;;3.83;85.71;99874.00;1673558;84;21228;-88
2023/01/17 07:49:56;;;;;;;106.27;51.15;;;;;;;3.93;85.63;99869.08;1669734;84;21176;-87
2023/01/17 07:53:05;;;;;;;94.80;48.48;;;;;;;3.93;85.87;99871.28;1652455;86;21244;-89
2023/01/17 07:56:12;;;;;;;94.65;50.30;;;;;;;4.01;85.73;99868.72;1650036;86;21267;-88
2023/01/17 07:59:19;;;;;;;99.60;51.02;;;;;;;4.01;85.71;99865.16;1651239;86;21208;-88
2023/01/17 08:02:27;;;;;;;105.78;54.10;;;;;;;4.11;85.50;99867.34;1643984;86;21578;-88
2023/01/17 08:05:37;;;;;;;98.97;53.70;;;;;;;4.20;85.51;99875.94;1648719;86;21284;-81
2023/01/17 08:08:43;;;;;;;112.90;54.77;;;;;;;4.11;85.56;99884.94;1669230;84;21204;-80
2023/01/17 08:11:51;;;;;;;106.70;55.95;;;;;;;4.15;86.19;99884.16;1647872;86;21252;-81
2023/01/17 08:14:57;;;;;;;106.90;56.70;;;;;;;4.16;86.50;99889.41;1670122;84;21192;-90
2023/01/17 08:18:04;;;;;;;106.43;54.70;;;;;;;4.17;86.84;99891.61;1670062;84;21187;-80
2023/01/17 08:21:09;;;;;;;94.22;49.88;;;;;;;4.27;86.77;99893.30;1675031;84;22140;-81
2023/01/17 08:24:20;;;;;;;85.35;46.30;;;;;;;4.39;86.44;99891.28;1666941;84;21201;-81
2023/01/17 08:27:29;;;;;;;78.22;42.60;;;;;;;4.48;86.51;99895.82;1672492;84;21757;-79
2023/01/17 08:30:36;;;;;;;77.05;41.53;;;;;;;4.49;86.34;99885.83;1669689;84;21195;-81
2023/01/17 08:33:41;;;;;;;74.40;38.78;;;;;;;4.57;86.31;99894.09;1668467;84;21204;-80
2023/01/17 08:36:46;;;;;;;57.38;33.60;;;;;;;4.58;86.49;99902.05;1674530;84;21196;-81
2023/01/17 08:39:53;;;;;;;57.65;33.40;;;;;;;4.66;86.44;99899.09;1673080;84;21571;-82
2023/01/17 08:43:03;;;;;;;59.15;33.10;;;;;;;4.78;86.27;99903.33;1664709;84;21541;-82
2023/01/17 08:46:08;;;;;;;56.48;31.00;;;;;;;4.78;86.06;99896.05;1656571;85;21209;-87
2023/01/17 08:49:15;;;;;;;59.45;31.23;;;;;;;4.82;86.21;99897.46;1664116;85;21176;-88
2023/01/17 08:52:26;;;;;;;57.13;31.27;;;;;;;4.93;85.95;99896.91;1656452;85;21208;-80
2023/01/17 08:55:32;;;;;;;55.35;31.95;;;;;;;4.96;86.29;99889.34;1658830;85;21203;-80
2023/01/17 08:58:40;;;;;;;57.75;30.23;;;;;;;5.03;86.59;99882.80;1658285;85;21267;-81
2023/01/17 09:01:46;;;;;;;57.33;30.92;;;;;;;5.06;87.61;99883.86;1677299;84;22119;-83
2023/01/17 09:04:56;;;;;;;53.08;30.23;;;;;;;5.17;88.21;99876.02;1652172;85;21202;-81
2023/01/17 09:07:56;;;;;;;53.20;29.85;;;;;;;5.27;88.53;99870.91;1654904;85;21757;-79
2023/01/17 09:11:01;;;;;;;44.85;28.27;;;;;;;5.42;88.79;99871.73;1655556;85;21848;-81
2023/01/17 09:14:08;;;;;;;52.53;29.77;;;;;;;5.49;89.27;99867.38;1649148;85;21229;-87
2023/01/17 09:17:15;;;;;;;52.05;31.45;;;;;;;5.63;89.59;99851.91;1654648;85;21283;-89
2023/01/17 09:20:22;;;;;;;45.80;29.18;;;;;;;5.70;89.58;99856.23;1646972;85;21489;-83
2023/01/17 09:23:32;;;;;;;46.23;29.10;;;;;;;5.70;90.07;99854.88;1671749;84;32111;-82
2023/01/17 09:26:38;;;;;;;47.08;28.50;;;;;;;5.81;90.07;99854.11;1673050;85;21214;-86
2023/01/17 09:29:44;;;;;;;49.60;30.48;;;;;;;5.87;89.97;99852.62;1672411;85;21194;-85
2023/01/17 09:32:53;;;;;;;50.17;28.40;;;;;;;5.94;90.10;99852.90;1665751;85;21348;-86
2023/01/17 09:35:58;;;;;;;43.35;27.80;;;;;;;5.86;89.89;99851.77;1642077;86;21212;-87
2023/01/17 09:39:06;;;;;;;45.20;28.85;;;;;;;5.98;90.22;99855.14;1652492;85;21197;-84
2023/01/17 09:42:30;;;;;;;51.30;29.72;;;;;;;6.08;90.14;99849.10;1660044;85;21203;-84
2023/01/17 09:45:38;;;;;;;47.17;28.57;;;;;;;6.07;90.21;99844.69;1668265;84;21235;-83
2023/01/17 09:48:44;;;;;;;46.50;29.00;;;;;;;6.08;90.21;99840.11;1670212;84;21239;-84
2023/01/17 09:51:50;;;;;;;45.00;28.85;;;;;;;6.08;90.22;99827.38;1648495;85;21620;-84
2023/01/17 09:54:57;;;;;;;51.77;29.57;;;;;;;6.10;90.50;99835.36;1648103;85;21226;-84
2023/01/17 09:58:14;;;;;;;51.20;29.35;;;;;;;6.05;91.35;99822.77;1687829;83;21246;-83
2023/01/17 10:01:31;;;;;;;46.35;28.07;;;;;;;6.07;91.27;99831.59;1674542;84;21226;-85
2023/01/17 10:04:59;;;;;;;51.13;28.85;;;;;;;5.96;91.83;99849.51;1659509;84;21227;-83
2023/01/17 10:08:24;;;;;;;54.25;30.80;;;;;;;5.92;92.26;99845.41;1650122;84;21223;-85
2023/01/17 10:11:46;;;;;;;51.30;31.02;;;;;;;5.89;92.79;99831.63;1665346;84;21215;-85
2023/01/17 10:15:18;;;;;;;58.73;31.73;;;;;;;5.96;92.69;99833.22;1636901;86;21237;-83
2023/01/17 10:18:50;;;;;;;53.00;32.90;;;;;;;6.05;92.31;99831.77;1669975;84;21215;-82
2023/01/17 10:22:30;;;;;;;57.38;31.85;;;;;;;6.05;92.21;99814.11;1680594;83;21245;-84
2023/01/17 10:25:49;;;;;;;53.90;33.33;;;;;;;5.97;92.33;99810.48;1657073;84;21218;-83
2023/01/17 10:28:55;;;;;;;58.78;32.63;;;;;;;6.07;92.50;99812.59;1661214;84;21221;-83
2023/01/17 10:32:06;;;;;;;66.07;35.08;;;;;;;6.09;92.33;99814.66;1662330;84;21750;-82
2023/01/17 10:35:16;;;;;;;60.03;34.13;;;;;;;6.21;92.05;99804.36;1648478;85;21246;-82
2023/01/17 10:38:21;;;;;;;56.85;34.88;;;;;;;6.01;92.95;99803.22;1667251;84;21288;-82
2023/01/17 10:41:42;;;;;;;58.85;34.20;;;;;;;5.95;93.34;99811.16;1672290;84;21778;-83
2023/01/17 10:44:52;;;;;;;61.98;34.40;;;;;;;5.97;93.46;99811.84;1670976;84;21225;-84
2023/01/17 10:48:08;;;;;;;64.40;35.63;;;;;;;6.04;93.44;99802.06;1644557;85;21267;-85
2023/01/17 10:51:48;;;;;;;60.75;32.93;;;;;;;6.08;93.55;99793.44;1672073;85;21214;-84
2023/01/17 10:55:15;;;;;;;61.90;34.98;;;;;;;6.12;93.56;99788.55;1649232;85;21230;-85
2023/01/17 10:58:24;;;;;;;62.08;35.48;;;;;;;6.19;93.71;99787.39;1674605;84;21198;-84
2023/01/17 11:01:31;;;;;;;68.17;35.85;;;;;;;6.19;93.77;99782.80;1635880;85;21279;-83
2023/01/17 11:04:48;;;;;;;56.42;34.25;;;;;;;6.18;93.71;99786.54;1666848;84;21202;-83
2023/01/17 11:08:16;;;;;;;60.20;35.28;;;;;;;6.24;93.41;99773.66;1632458;87;21201;-85
2023/01/17 11:11:23;;;;;;;56.85;33.08;;;;;;;6.25;93.33;99759.58;1647813;85;21331;-85
2023/01/17 11:14:30;;;;;;;56.95;33.88;;;;;;;6.37;93.17;99764.56;1659093;85;21199;-84
2023/01/17 11:17:37;;;;;;;52.23;32.15;;;;;;;6.22;93.43;99753.98;1653819;85;22296;-85
2023/01/17 11:20:45;;;;;;;53.87;33.28;;;;;;;6.34;93.67;99756.73;1670650;84;21780;-85
2023/01/17 11:23:55;;;;;;;50.33;30.48;;;;;;;6.49;93.39;99749.33;1647110;86;21237;-85
2023/01/17 11:27:00;;;;;;;50.23;32.50;;;;;;;6.61;92.88;99749.39;1656211;86;21800;-82
2023/01/17 11:30:14;;;;;;;54.00;33.45;;;;;;;6.53;93.33;99747.47;1654126;85;21195;-85
2023/01/17 11:33:34;;;;;;;48.92;30.72;;;;;;;6.73;93.57;99730.41;1651178;85;21235;-85
2023/01/17 11:36:39;;;;;;;54.20;32.88;;;;;;;6.89;93.32;99739.11;1623760;85;21291;-84
2023/01/17 11:39:50;;;;;;;51.70;31.60;;;;;;;7.03;92.90;99732.16;1676573;84;21219;-83
2023/01/17 11:43:14;;;;;;;53.75;32.00;;;;;;;7.25;92.13;99715.20;1641391;87;21276;-84
2023/01/17 11:46:24;;;;;;;51.33;30.02;;;;;;;7.26;91.19;99714.69;1640712;85;21960;-83
2023/01/17 11:49:32;;;;;;;52.58;30.57;;;;;;;7.27;90.93;99713.14;1663833;84;21276;-84
2023/01/17 11:52:40;;;;;;;45.92;29.77;;;;;;;7.18;91.10;99728.60;1668198;83;21250;-82
2023/01/17 11:55:49;;;;;;;54.35;31.10;;;;;;;7.15;91.09;99733.52;1677969;83;21804;-84
2023/01/17 11:58:55;;;;;;;50.20;30.30;;;;;;;7.12;91.25;99732.52;1679633;83;21235;-83
2023/01/17 12:02:30;;;;;;;44.38;29.50;;;;;;;7.14;91.18;99716.87;1672802;83;21200;-84
2023/01/17 12:06:00;;;;;;;45.33;28.95;;;;;;;7.14;91.23;99722.31;1670036;84;21207;-83
2023/01/17 12:09:21;;;;;;;45.80;29.60;;;;;;;7.12;91.50;99725.20;1650179;85;21179;-85
2023/01/17 12:16:34;;;;;;;46.00;29.60;;;;;;;7.23;91.52;99721.30;1649394;86;21235;-82
2023/01/17 12:20:11;;;;;;;50.63;29.57;;;;;;;7.33;91.15;99718.41;1662741;84;21230;-85
2023/01/17 12:23:55;;;;;;;50.60;32.05;;;;;;;7.30;91.20;99717.41;1617727;87;21349;-83
2023/01/17 12:27:29;;;;;;;45.83;28.27;;;;;;;7.20;91.67;99716.70;1642385;85;21226;-85
2023/01/17 12:31:01;;;;;;;51.83;30.32;;;;;;;7.20;91.47;99725.73;1642531;85;21512;-85
2023/01/17 12:34:37;;;;;;;49.53;29.50;;;;;;;7.05;91.80;99734.20;1649648;85;21232;-84
2023/01/17 12:37:51;;;;;;;49.20;30.08;;;;;;;6.91;92.51;99733.83;1642358;85;21240;-84
2023/01/17 12:41:11;;;;;;;51.28;31.93;;;;;;;6.94;92.81;99728.58;1648323;85;21356;-86
2023/01/17 12:44:17;;;;;;;54.38;31.33;;;;;;;6.95;93.14;99728.91;1651681;85;21247;-86
2023/01/17 12:47:22;;;;;;;50.88;30.40;;;;;;;6.91;93.38;99721.59;1638234;85;21196;-86
2023/01/17 12:50:41;;;;;;;55.38;31.73;;;;;;;6.90;93.53;99722.61;1640905;85;21248;-82
2023/01/17 12:54:18;;;;;;;51.70;30.82;;;;;;;6.94;93.58;99733.17;1639914;85;21264;-82
2023/01/17 12:57:35;;;;;;;56.73;31.37;;;;;;;6.88;93.88;99731.46;1646144;85;21237;-83
2023/01/17 13:00:43;;;;;;;55.67;33.25;;;;;;;6.89;93.95;99725.00;1635377;85;21305;-85
2023/01/17 13:04:13;;;;;;;59.05;32.55;;;;;;;6.86;93.97;99728.04;1645438;85;21204;-85
2023/01/17 13:07:26;;;;;;;47.48;32.00;;;;;;;6.84;94.03;99718.37;1637543;86;21224;-85
2023/01/17 13:10:42;;;;;;;45.50;29.82;;;;;;;6.76;94.32;99725.13;1611932;88;21231;-84
2023/01/17 13:13:51;;;;;;;49.90;31.45;;;;;;;6.72;94.67;99725.97;1647774;85;21140;-85
2023/01/17 13:17:06;;;;;;;46.10;29.15;;;;;;;6.72;94.68;99722.41;1642545;85;21256;-84
2023/01/17 13:20:35;;;;;;;51.10;31.52;;;;;;;6.54;95.43;99725.23;1631177;85;21212;-83
2023/01/17 13:24:08;;;;;;;51.83;31.42;;;;;;;6.59;95.59;99737.33;1654367;84;21176;-84
2023/01/17 13:27:26;;;;;;;56.55;32.70;;;;;;;6.62;95.33;99741.05;1655502;85;21206;-83
2023/01/17 13:31:14;;;;;;;52.40;32.65;;;;;;;6.59;95.61;99740.05;1624284;84;21739;-84
2023/01/17 13:34:55;;;;;;;55.03;32.83;;;;;;;6.52;95.96;99742.22;1653649;85;22557;-82
2023/01/17 13:38:41;;;;;;;55.85;31.00;;;;;;;6.60;95.66;99753.97;1656981;85;21222;-86
2023/01/17 13:42:02;;;;;;;50.28;31.30;;;;;;;6.59;95.88;99746.00;1654791;85;21276;-82
2023/01/17 13:45:02;;;;;;;54.88;32.60;;;;;;;6.51;96.16;99750.88;1618237;87;21233;-83
2023/01/17 13:48:22;;;;;;;58.80;35.30;;;;;;;6.49;96.33;99750.17;1641629;85;21276;-84
2023/01/17 13:51:27;;;;;;;59.50;32.40;;;;;;;6.62;95.95;99745.13;1616488;87;21227;-85
2023/01/17 13:54:39;;;;;;;56.73;32.33;;;;;;;6.42;96.51;99749.14;1591665;88;21253;-84
2023/01/17 13:57:47;;;;;;;46.83;30.48;;;;;;;6.49;96.96;99749.33;1601372;88;21259;-82
2023/01/17 14:00:55;;;;;;;55.15;32.03;;;;;;;6.39;97.14;99751.66;1650542;85;21221;-85
2023/01/17 14:04:06;;;;;;;48.55;32.30;;;;;;;6.38;97.43;99751.33;1649559;85;21786;-85
2023/01/17 14:07:17;;;;;;;54.08;34.27;;;;;;;6.32;97.87;99745.70;1667586;85;21251;-85
2023/01/17 14:10:51;;;;;;;54.55;33.53;;;;;;;6.35;98.02;99738.57;1615735;85;21291;-85
2023/01/17 14:13:56;;;;;;;60.17;35.28;;;;;;;6.44;97.72;99740.81;1639826;86;21692;-85
2023/01/17 14:17:02;;;;;;;64.30;37.78;;;;;;;6.46;97.66;99736.94;1658701;85;21277;-84
2023/01/17 14:20:20;;;;;;;59.35;35.52;;;;;;;6.34;98.08;99728.21;1652973;86;21782;-86
2023/01/17 14:23:34;;;;;;;64.67;36.03;;;;;;;6.34;98.50;99729.57;1648262;85;21577;-85
2023/01/17 14:26:50;;;;;;;63.87;37.53;;;;;;;6.32;98.72;99728.90;1648923;86;21897;-83
2023/01/17 14:30:06;;;;;;;58.33;35.17;;;;;;;6.27;99.16;99729.90;1641551;86;21268;-84
2023/01/17 14:33:17;;;;;;;64.37;38.65;;;;;;;6.21;99.79;99727.84;1640300;86;21294;-85
2023/01/17 14:36:38;;;;;;;60.00;36.58;;;;;;;6.25;100.00;99737.34;1641110;86;21256;-84
2023/01/17 14:39:52;;;;;;;64.45;36.77;;;;;;;6.26;100.00;99734.98;1641467;86;21232;-85
2023/01/17 14:43:22;;;;;;;57.25;35.25;;;;;;;6.22;99.98;99742.27;1643544;86;21204;-85
2023/01/17 14:46:37;;;;;;;56.83;35.13;;;;;;;6.42;99.59;99742.35;1655994;86;21790;-85
2023/01/17 14:49:43;;;;;;;57.75;34.60;;;;;;;6.34;99.59;99742.30;1658026;86;21188;-84
2023/01/17 14:52:49;;;;;;;65.22;34.67;;;;;;;6.41;99.32;99737.94;1658464;86;21236;-86
2023/01/17 14:56:02;;;;;;;54.27;33.92;;;;;;;6.31;99.18;99731.28;1656774;86;21227;-86
2023/01/17 14:59:16;;;;;;;63.10;35.48;;;;;;;6.32;99.69;99726.69;1636709;86;21220;-84
2023/01/17 15:02:22;;;;;;;55.73;33.38;;;;;;;6.36;99.51;99720.77;1655863;86;21223;-83
2023/01/17 15:05:30;;;;;;;57.27;35.80;;;;;;;6.36;99.65;99722.64;1650999;86;21216;-85
2023/01/17 15:08:40;;;;;;;59.18;37.08;;;;;;;6.33;99.58;99722.95;1657162;86;21244;-85
2023/01/17 15:11:47;;;;;;;61.25;36.35;;;;;;;6.36;99.68;99728.07;1657994;86;22521;-86
2023/01/17 15:14:57;;;;;;;61.40;36.40;;;;;;;6.34;99.42;99740.95;1640344;86;21212;-84
2023/01/17 15:18:14;;;;;;;60.95;36.13;;;;;;;6.54;98.62;99734.73;1656649;86;21254;-85
2023/01/17 15:21:23;;;;;;;62.03;36.83;;;;;;;6.57;98.36;99737.98;1657659;86;21196;-84
2023/01/17 15:24:36;;;;;;;55.90;34.73;;;;;;;6.56;98.14;99736.80;1651210;86;21267;-84
2023/01/17 15:27:41;;;;;;;58.83;36.40;;;;;;;6.60;98.21;99742.25;1655344;86;21267;-85
2023/01/17 15:31:33;;;;;;;59.05;34.67;;;;;;;6.65;98.12;99743.97;1653633;86;21239;-85
2023/01/17 15:34:43;;;;;;;59.58;35.05;;;;;;;6.76;97.91;99743.65;1654565;86;21283;-81
2023/01/17 15:37:49;;;;;;;59.27;35.88;;;;;;;6.85;97.40;99742.66;1654256;86;21238;-83
2023/01/17 15:40:55;;;;;;;57.58;33.88;;;;;;;7.05;96.17;99737.76;1649836;85;21226;-83
2023/01/17 15:44:01;;;;;;;58.08;34.25;;;;;;;7.04;95.84;99745.58;1650938;87;21249;-86
2023/01/17 15:47:07;;;;;;;65.12;35.30;;;;;;;6.93;96.13;99746.42;1650418;87;22380;-83
2023/01/17 15:50:37;;;;;;;60.80;34.33;;;;;;;7.05;95.90;99745.92;1648983;87;21294;-86
2023/01/17 15:53:44;;;;;;;67.00;35.00;;;;;;;6.84;96.72;99746.40;1651665;86;21226;-85
2023/01/17 15:56:51;;;;;;;60.30;35.78;;;;;;;6.82;97.23;99738.93;1652667;86;21521;-86
2023/01/17 16:00:06;;;;;;;62.45;37.85;;;;;;;6.78;97.73;99739.42;1651654;86;21331;-85
2023/01/17 16:03:30;;;;;;;68.30;39.50;;;;;;;6.78;97.81;99740.78;1652916;86;21957;-84
2023/01/17 16:06:47;;;;;;;65.47;38.48;;;;;;;6.76;98.20;99721.05;1653917;86;21234;-85
2023/01/17 16:09:52;;;;;;;69.17;40.15;;;;;;;6.57;98.89;99733.91;1653755;86;21621;-83
2023/01/17 16:13:00;;;;;;;60.80;36.73;;;;;;;6.70;98.86;99731.24;1655764;86;21222;-85
2023/01/17 16:16:28;;;;;;;67.67;38.85;;;;;;;6.62;98.70;99738.85;1654965;86;21218;-86